sensor_id;sensor_type;location;lat;lon;timestamp;P1;durP1;ratioP1;P2;durP2;ratioP2
15443;SDS011;7822;48.146;11.576;2022-12-18T00:01:21;34.07;;;19.17;;
15443;SDS011;7822;48.146;11.576;2022-12-18T00:03:51;36.67;;;20.60;;
15443;SDS011;7822;48.146;11.576;2022-12-18T00:06:19;31.97;;;18.80;;
15443;SDS011;7822;48.146;11.576;2022-12-18T00:08:47;32.07;;;18.00;;
15443;SDS011;7822;48.146;11.576;2022-12-18T00:11:16;35.90;;;19.77;;
15443;SDS011;7822;48.146;11.576;2022-12-18T00:13:46;31.73;;;18.73;;
15443;SDS011;7822;48.146;11.576;2022-12-18T00:16:15;31.37;;;18.63;;
15443;SDS011;7822;48.146;11.576;2022-12-18T00:18:48;35.73;;;19.57;;
15443;SDS011;7822;48.146;11.576;2022-12-18T00:21:17;32.97;;;18.67;;
15443;SDS011;7822;48.146;11.576;2022-12-18T00:23:47;31.30;;;18.53;;
15443;SDS011;7822;48.146;11.576;2022-12-18T00:26:16;34.70;;;18.60;;
15443;SDS011;7822;48.146;11.576;2022-12-18T00:28:48;37.23;;;19.43;;
15443;SDS011;7822;48.146;11.576;2022-12-18T00:31:17;35.10;;;18.97;;
15443;SDS011;7822;48.146;11.576;2022-12-18T00:33:47;33.70;;;18.97;;
15443;SDS011;7822;48.146;11.576;2022-12-18T00:36:21;29.30;;;17.03;;
15443;SDS011;7822;48.146;11.576;2022-12-18T00:38:50;32.53;;;18.97;;
15443;SDS011;7822;48.146;11.576;2022-12-18T00:41:18;31.83;;;18.87;;
15443;SDS011;7822;48.146;11.576;2022-12-18T00:44:02;33.10;;;17.83;;
15443;SDS011;7822;48.146;11.576;2022-12-18T00:46:30;32.50;;;19.03;;
15443;SDS011;7822;48.146;11.576;2022-12-18T00:48:58;35.23;;;18.33;;
15443;SDS011;7822;48.146;11.576;2022-12-18T00:51:26;34.23;;;18.57;;
15443;SDS011;7822;48.146;11.576;2022-12-18T00:53:54;31.40;;;17.10;;
15443;SDS011;7822;48.146;11.576;2022-12-18T00:56:21;31.30;;;17.50;;
15443;SDS011;7822;48.146;11.576;2022-12-18T00:58:50;27.83;;;15.70;;
15443;SDS011;7822;48.146;11.576;2022-12-18T01:01:19;29.10;;;17.10;;
15443;SDS011;7822;48.146;11.576;2022-12-18T01:03:47;27.73;;;16.00;;
15443;SDS011;7822;48.146;11.576;2022-12-18T01:06:15;29.00;;;15.60;;
15443;SDS011;7822;48.146;11.576;2022-12-18T01:08:44;26.87;;;16.07;;
15443;SDS011;7822;48.146;11.576;2022-12-18T01:11:12;23.73;;;14.50;;
15443;SDS011;7822;48.146;11.576;2022-12-18T01:13:41;29.47;;;15.73;;
15443;SDS011;7822;48.146;11.576;2022-12-18T01:16:10;28.23;;;16.03;;
15443;SDS011;7822;48.146;11.576;2022-12-18T01:18:40;32.03;;;16.67;;
15443;SDS011;7822;48.146;11.576;2022-12-18T01:21:09;27.23;;;15.77;;
15443;SDS011;7822;48.146;11.576;2022-12-18T01:23:37;28.00;;;16.03;;
15443;SDS011;7822;48.146;11.576;2022-12-18T01:26:06;26.90;;;15.67;;
15443;SDS011;7822;48.146;11.576;2022-12-18T01:28:35;28.73;;;15.63;;
15443;SDS011;7822;48.146;11.576;2022-12-18T01:31:14;32.67;;;16.03;;
15443;SDS011;7822;48.146;11.576;2022-12-18T01:33:45;30.90;;;17.00;;
15443;SDS011;7822;48.146;11.576;2022-12-18T01:36:16;26.57;;;16.10;;
15443;SDS011;7822;48.146;11.576;2022-12-18T01:38:47;27.33;;;15.50;;
15443;SDS011;7822;48.146;11.576;2022-12-18T01:41:18;29.10;;;16.03;;
15443;SDS011;7822;48.146;11.576;2022-12-18T01:43:49;32.87;;;16.57;;
15443;SDS011;7822;48.146;11.576;2022-12-18T01:46:19;27.33;;;15.33;;
15443;SDS011;7822;48.146;11.576;2022-12-18T01:48:50;33.47;;;16.57;;
15443;SDS011;7822;48.146;11.576;2022-12-18T01:51:21;32.13;;;17.77;;
15443;SDS011;7822;48.146;11.576;2022-12-18T01:53:49;30.53;;;17.43;;
15443;SDS011;7822;48.146;11.576;2022-12-18T01:56:17;30.93;;;16.70;;
15443;SDS011;7822;48.146;11.576;2022-12-18T01:58:50;29.70;;;17.07;;
15443;SDS011;7822;48.146;11.576;2022-12-18T02:01:22;32.23;;;18.13;;
15443;SDS011;7822;48.146;11.576;2022-12-18T02:03:52;30.00;;;16.80;;
15443;SDS011;7822;48.146;11.576;2022-12-18T02:06:21;34.10;;;19.00;;
15443;SDS011;7822;48.146;11.576;2022-12-18T02:08:58;33.70;;;18.23;;
15443;SDS011;7822;48.146;11.576;2022-12-18T02:11:38;34.07;;;19.03;;
15443;SDS011;7822;48.146;11.576;2022-12-18T02:14:17;28.87;;;16.63;;
15443;SDS011;7822;48.146;11.576;2022-12-18T02:16:51;30.73;;;18.23;;
15443;SDS011;7822;48.146;11.576;2022-12-18T02:19:37;36.80;;;19.77;;
15443;SDS011;7822;48.146;11.576;2022-12-18T02:22:14;32.77;;;18.20;;
15443;SDS011;7822;48.146;11.576;2022-12-18T02:24:59;32.47;;;17.87;;
15443;SDS011;7822;48.146;11.576;2022-12-18T02:27:37;32.10;;;17.30;;
15443;SDS011;7822;48.146;11.576;2022-12-18T02:30:07;32.10;;;17.63;;
15443;SDS011;7822;48.146;11.576;2022-12-18T02:32:37;33.80;;;17.70;;
15443;SDS011;7822;48.146;11.576;2022-12-18T02:35:11;32.20;;;17.67;;
15443;SDS011;7822;48.146;11.576;2022-12-18T02:37:43;30.33;;;17.07;;
15443;SDS011;7822;48.146;11.576;2022-12-18T02:40:12;31.43;;;17.67;;
15443;SDS011;7822;48.146;11.576;2022-12-18T02:42:44;31.90;;;18.13;;
15443;SDS011;7822;48.146;11.576;2022-12-18T02:45:12;30.97;;;18.17;;
15443;SDS011;7822;48.146;11.576;2022-12-18T02:47:40;37.80;;;19.47;;
15443;SDS011;7822;48.146;11.576;2022-12-18T02:50:13;35.07;;;19.00;;
15443;SDS011;7822;48.146;11.576;2022-12-18T02:52:47;35.97;;;20.53;;
15443;SDS011;7822;48.146;11.576;2022-12-18T02:55:28;33.80;;;18.53;;
15443;SDS011;7822;48.146;11.576;2022-12-18T02:58:11;32.53;;;18.43;;
15443;SDS011;7822;48.146;11.576;2022-12-18T03:00:43;33.03;;;18.97;;
15443;SDS011;7822;48.146;11.576;2022-12-18T03:03:19;33.63;;;18.53;;
15443;SDS011;7822;48.146;11.576;2022-12-18T03:05:53;31.87;;;17.43;;
15443;SDS011;7822;48.146;11.576;2022-12-18T03:08:26;31.27;;;17.97;;
15443;SDS011;7822;48.146;11.576;2022-12-18T03:10:57;32.87;;;17.17;;
15443;SDS011;7822;48.146;11.576;2022-12-18T03:13:31;32.33;;;17.70;;
15443;SDS011;7822;48.146;11.576;2022-12-18T03:16:04;33.37;;;18.17;;
15443;SDS011;7822;48.146;11.576;2022-12-18T03:18:35;32.00;;;17.67;;
15443;SDS011;7822;48.146;11.576;2022-12-18T03:21:06;32.23;;;17.67;;
15443;SDS011;7822;48.146;11.576;2022-12-18T03:23:36;33.33;;;17.87;;
15443;SDS011;7822;48.146;11.576;2022-12-18T03:26:09;32.00;;;18.07;;
15443;SDS011;7822;48.146;11.576;2022-12-18T03:28:44;32.67;;;18.37;;
15443;SDS011;7822;48.146;11.576;2022-12-18T03:31:14;32.30;;;17.47;;
15443;SDS011;7822;48.146;11.576;2022-12-18T03:33:44;34.87;;;18.77;;
15443;SDS011;7822;48.146;11.576;2022-12-18T03:36:18;31.27;;;18.10;;
15443;SDS011;7822;48.146;11.576;2022-12-18T03:38:45;33.50;;;18.13;;
15443;SDS011;7822;48.146;11.576;2022-12-18T03:41:15;35.33;;;18.80;;
15443;SDS011;7822;48.146;11.576;2022-12-18T03:43:51;33.70;;;17.60;;
15443;SDS011;7822;48.146;11.576;2022-12-18T03:46:24;31.23;;;17.07;;
15443;SDS011;7822;48.146;11.576;2022-12-18T03:48:58;36.10;;;18.47;;
15443;SDS011;7822;48.146;11.576;2022-12-18T03:51:31;29.83;;;16.70;;
15443;SDS011;7822;48.146;11.576;2022-12-18T03:54:06;32.63;;;17.70;;
15443;SDS011;7822;48.146;11.576;2022-12-18T03:56:38;30.30;;;17.47;;
15443;SDS011;7822;48.146;11.576;2022-12-18T03:59:10;29.87;;;18.13;;
15443;SDS011;7822;48.146;11.576;2022-12-18T04:01:40;28.33;;;17.53;;
15443;SDS011;7822;48.146;11.576;2022-12-18T04:04:13;32.03;;;17.80;;
15443;SDS011;7822;48.146;11.576;2022-12-18T04:06:43;28.23;;;16.67;;
15443;SDS011;7822;48.146;11.576;2022-12-18T04:09:13;31.73;;;17.93;;
15443;SDS011;7822;48.146;11.576;2022-12-18T04:11:41;32.23;;;17.60;;
15443;SDS011;7822;48.146;11.576;2022-12-18T04:14:11;27.80;;;16.67;;
15443;SDS011;7822;48.146;11.576;2022-12-18T04:16:43;27.63;;;16.20;;
15443;SDS011;7822;48.146;11.576;2022-12-18T04:19:11;28.87;;;16.40;;
15443;SDS011;7822;48.146;11.576;2022-12-18T04:21:39;31.53;;;17.30;;
15443;SDS011;7822;48.146;11.576;2022-12-18T04:24:07;31.43;;;17.27;;
15443;SDS011;7822;48.146;11.576;2022-12-18T04:26:35;31.87;;;17.17;;
15443;SDS011;7822;48.146;11.576;2022-12-18T04:29:02;31.40;;;17.10;;
15443;SDS011;7822;48.146;11.576;2022-12-18T04:31:31;33.33;;;17.97;;
15443;SDS011;7822;48.146;11.576;2022-12-18T04:33:59;27.97;;;16.40;;
15443;SDS011;7822;48.146;11.576;2022-12-18T04:36:27;32.20;;;17.33;;
15443;SDS011;7822;48.146;11.576;2022-12-18T04:38:55;28.63;;;15.93;;
15443;SDS011;7822;48.146;11.576;2022-12-18T04:41:23;30.57;;;17.33;;
15443;SDS011;7822;48.146;11.576;2022-12-18T04:43:50;31.50;;;16.80;;
15443;SDS011;7822;48.146;11.576;2022-12-18T04:46:18;29.60;;;16.60;;
15443;SDS011;7822;48.146;11.576;2022-12-18T04:48:47;31.73;;;16.67;;
15443;SDS011;7822;48.146;11.576;2022-12-18T04:51:15;29.97;;;16.50;;
15443;SDS011;7822;48.146;11.576;2022-12-18T04:53:49;27.57;;;15.47;;
15443;SDS011;7822;48.146;11.576;2022-12-18T04:56:17;29.07;;;16.53;;
15443;SDS011;7822;48.146;11.576;2022-12-18T04:58:45;28.70;;;15.93;;
15443;SDS011;7822;48.146;11.576;2022-12-18T05:01:13;27.20;;;15.27;;
15443;SDS011;7822;48.146;11.576;2022-12-18T05:03:42;28.17;;;15.90;;
15443;SDS011;7822;48.146;11.576;2022-12-18T05:06:12;29.17;;;15.80;;
15443;SDS011;7822;48.146;11.576;2022-12-18T05:08:40;28.67;;;16.00;;
15443;SDS011;7822;48.146;11.576;2022-12-18T05:11:08;27.87;;;15.37;;
15443;SDS011;7822;48.146;11.576;2022-12-18T05:13:37;31.03;;;16.10;;
15443;SDS011;7822;48.146;11.576;2022-12-18T05:16:06;23.20;;;14.47;;
15443;SDS011;7822;48.146;11.576;2022-12-18T05:18:34;26.20;;;14.50;;
15443;SDS011;7822;48.146;11.576;2022-12-18T05:21:02;26.33;;;14.73;;
15443;SDS011;7822;48.146;11.576;2022-12-18T05:23:34;26.30;;;15.63;;
15443;SDS011;7822;48.146;11.576;2022-12-18T05:26:04;26.63;;;15.33;;
15443;SDS011;7822;48.146;11.576;2022-12-18T05:28:34;27.33;;;15.07;;
15443;SDS011;7822;48.146;11.576;2022-12-18T05:31:03;23.70;;;14.67;;
15443;SDS011;7822;48.146;11.576;2022-12-18T05:33:32;28.27;;;15.70;;
15443;SDS011;7822;48.146;11.576;2022-12-18T05:36:02;27.33;;;16.73;;
15443;SDS011;7822;48.146;11.576;2022-12-18T05:38:34;27.33;;;15.73;;
15443;SDS011;7822;48.146;11.576;2022-12-18T05:41:04;26.90;;;15.57;;
15443;SDS011;7822;48.146;11.576;2022-12-18T05:43:33;25.13;;;16.03;;
15443;SDS011;7822;48.146;11.576;2022-12-18T05:46:03;24.60;;;14.87;;
15443;SDS011;7822;48.146;11.576;2022-12-18T05:48:32;30.37;;;16.00;;
15443;SDS011;7822;48.146;11.576;2022-12-18T05:51:03;25.60;;;14.77;;
15443;SDS011;7822;48.146;11.576;2022-12-18T05:53:33;24.33;;;14.30;;
15443;SDS011;7822;48.146;11.576;2022-12-18T05:56:03;23.37;;;14.57;;
15443;SDS011;7822;48.146;11.576;2022-12-18T05:58:32;25.70;;;14.53;;
15443;SDS011;7822;48.146;11.576;2022-12-18T06:01:05;28.03;;;14.43;;
15443;SDS011;7822;48.146;11.576;2022-12-18T06:03:34;26.73;;;15.37;;
15443;SDS011;7822;48.146;11.576;2022-12-18T06:06:02;28.07;;;15.33;;
15443;SDS011;7822;48.146;11.576;2022-12-18T06:08:30;24.90;;;13.87;;
15443;SDS011;7822;48.146;11.576;2022-12-18T06:10:59;23.93;;;13.47;;
15443;SDS011;7822;48.146;11.576;2022-12-18T06:13:26;27.33;;;13.93;;
15443;SDS011;7822;48.146;11.576;2022-12-18T06:15:54;23.50;;;13.77;;
15443;SDS011;7822;48.146;11.576;2022-12-18T06:18:22;23.63;;;13.43;;
15443;SDS011;7822;48.146;11.576;2022-12-18T06:20:54;23.80;;;13.73;;
15443;SDS011;7822;48.146;11.576;2022-12-18T06:23:22;24.40;;;13.63;;
15443;SDS011;7822;48.146;11.576;2022-12-18T06:25:49;22.73;;;13.77;;
15443;SDS011;7822;48.146;11.576;2022-12-18T06:28:19;23.93;;;13.63;;
15443;SDS011;7822;48.146;11.576;2022-12-18T06:30:47;25.13;;;12.97;;
15443;SDS011;7822;48.146;11.576;2022-12-18T06:33:15;24.37;;;13.40;;
15443;SDS011;7822;48.146;11.576;2022-12-18T06:35:43;21.33;;;12.40;;
15443;SDS011;7822;48.146;11.576;2022-12-18T06:38:11;22.97;;;12.50;;
15443;SDS011;7822;48.146;11.576;2022-12-18T06:40:38;22.30;;;13.03;;
15443;SDS011;7822;48.146;11.576;2022-12-18T06:43:06;24.80;;;12.90;;
15443;SDS011;7822;48.146;11.576;2022-12-18T06:45:35;25.47;;;14.50;;
15443;SDS011;7822;48.146;11.576;2022-12-18T06:48:03;27.50;;;15.40;;
15443;SDS011;7822;48.146;11.576;2022-12-18T06:50:30;26.57;;;14.80;;
15443;SDS011;7822;48.146;11.576;2022-12-18T06:52:58;25.17;;;14.47;;
15443;SDS011;7822;48.146;11.576;2022-12-18T06:55:27;24.37;;;15.23;;
15443;SDS011;7822;48.146;11.576;2022-12-18T06:57:55;28.77;;;15.93;;
15443;SDS011;7822;48.146;11.576;2022-12-18T07:00:23;25.63;;;14.97;;
15443;SDS011;7822;48.146;11.576;2022-12-18T07:02:52;26.37;;;15.17;;
15443;SDS011;7822;48.146;11.576;2022-12-18T07:05:20;23.50;;;14.33;;
15443;SDS011;7822;48.146;11.576;2022-12-18T07:07:48;27.57;;;15.43;;
15443;SDS011;7822;48.146;11.576;2022-12-18T07:10:15;26.73;;;15.33;;
15443;SDS011;7822;48.146;11.576;2022-12-18T07:12:43;27.77;;;15.27;;
15443;SDS011;7822;48.146;11.576;2022-12-18T07:15:11;26.37;;;14.40;;
15443;SDS011;7822;48.146;11.576;2022-12-18T07:17:40;22.57;;;12.67;;
15443;SDS011;7822;48.146;11.576;2022-12-18T07:20:10;26.63;;;14.07;;
15443;SDS011;7822;48.146;11.576;2022-12-18T07:22:38;24.50;;;13.07;;
15443;SDS011;7822;48.146;11.576;2022-12-18T07:25:06;22.27;;;13.07;;
15443;SDS011;7822;48.146;11.576;2022-12-18T07:27:34;23.67;;;13.27;;
15443;SDS011;7822;48.146;11.576;2022-12-18T07:30:02;22.70;;;14.90;;
15443;SDS011;7822;48.146;11.576;2022-12-18T07:32:31;21.43;;;12.60;;
15443;SDS011;7822;48.146;11.576;2022-12-18T07:34:58;22.63;;;13.20;;
15443;SDS011;7822;48.146;11.576;2022-12-18T07:37:27;23.10;;;13.50;;
15443;SDS011;7822;48.146;11.576;2022-12-18T07:39:55;27.57;;;15.37;;
15443;SDS011;7822;48.146;11.576;2022-12-18T07:42:23;20.57;;;13.03;;
15443;SDS011;7822;48.146;11.576;2022-12-18T07:44:59;22.80;;;13.37;;
15443;SDS011;7822;48.146;11.576;2022-12-18T07:47:33;23.10;;;13.80;;
15443;SDS011;7822;48.146;11.576;2022-12-18T07:50:01;23.60;;;14.57;;
15443;SDS011;7822;48.146;11.576;2022-12-18T07:52:32;21.47;;;13.30;;
15443;SDS011;7822;48.146;11.576;2022-12-18T07:55:00;25.03;;;13.37;;
15443;SDS011;7822;48.146;11.576;2022-12-18T07:57:28;22.23;;;13.63;;
15443;SDS011;7822;48.146;11.576;2022-12-18T08:00:16;25.63;;;14.70;;
15443;SDS011;7822;48.146;11.576;2022-12-18T08:02:44;20.20;;;13.00;;
15443;SDS011;7822;48.146;11.576;2022-12-18T08:05:13;20.87;;;13.37;;
15443;SDS011;7822;48.146;11.576;2022-12-18T08:07:43;24.10;;;13.63;;
15443;SDS011;7822;48.146;11.576;2022-12-18T08:10:10;24.40;;;14.13;;
15443;SDS011;7822;48.146;11.576;2022-12-18T08:12:38;22.03;;;13.63;;
15443;SDS011;7822;48.146;11.576;2022-12-18T08:15:06;24.23;;;13.80;;
15443;SDS011;7822;48.146;11.576;2022-12-18T08:17:34;27.10;;;14.50;;
15443;SDS011;7822;48.146;11.576;2022-12-18T08:20:02;23.97;;;14.17;;
15443;SDS011;7822;48.146;11.576;2022-12-18T08:22:33;20.77;;;12.60;;
15443;SDS011;7822;48.146;11.576;2022-12-18T08:25:02;22.33;;;12.37;;
15443;SDS011;7822;48.146;11.576;2022-12-18T08:27:30;22.37;;;12.57;;
15443;SDS011;7822;48.146;11.576;2022-12-18T08:29:59;21.30;;;12.63;;
15443;SDS011;7822;48.146;11.576;2022-12-18T08:32:27;22.33;;;12.90;;
15443;SDS011;7822;48.146;11.576;2022-12-18T08:34:55;21.50;;;12.57;;
15443;SDS011;7822;48.146;11.576;2022-12-18T08:37:22;22.93;;;13.53;;
15443;SDS011;7822;48.146;11.576;2022-12-18T08:39:50;20.83;;;12.20;;
15443;SDS011;7822;48.146;11.576;2022-12-18T08:42:19;19.33;;;11.90;;
15443;SDS011;7822;48.146;11.576;2022-12-18T08:45:04;23.37;;;13.00;;
15443;SDS011;7822;48.146;11.576;2022-12-18T08:47:33;21.97;;;12.70;;
15443;SDS011;7822;48.146;11.576;2022-12-18T08:50:00;19.07;;;11.17;;
15443;SDS011;7822;48.146;11.576;2022-12-18T08:52:28;19.37;;;11.43;;
15443;SDS011;7822;48.146;11.576;2022-12-18T08:54:56;20.93;;;12.23;;
15443;SDS011;7822;48.146;11.576;2022-12-18T08:57:28;18.60;;;12.13;;
15443;SDS011;7822;48.146;11.576;2022-12-18T08:59:55;19.73;;;11.53;;
15443;SDS011;7822;48.146;11.576;2022-12-18T09:02:23;19.70;;;11.30;;
15443;SDS011;7822;48.146;11.576;2022-12-18T09:04:51;20.43;;;11.20;;
15443;SDS011;7822;48.146;11.576;2022-12-18T09:07:23;16.93;;;11.33;;
15443;SDS011;7822;48.146;11.576;2022-12-18T09:09:50;19.50;;;12.57;;
15443;SDS011;7822;48.146;11.576;2022-12-18T09:12:20;20.50;;;11.60;;
15443;SDS011;7822;48.146;11.576;2022-12-18T09:14:50;20.23;;;11.90;;
15443;SDS011;7822;48.146;11.576;2022-12-18T09:17:18;19.70;;;11.40;;
15443;SDS011;7822;48.146;11.576;2022-12-18T09:19:46;19.87;;;11.50;;
15443;SDS011;7822;48.146;11.576;2022-12-18T09:22:14;19.30;;;10.77;;
15443;SDS011;7822;48.146;11.576;2022-12-18T09:24:41;19.93;;;11.63;;
15443;SDS011;7822;48.146;11.576;2022-12-18T09:27:09;18.43;;;11.63;;
15443;SDS011;7822;48.146;11.576;2022-12-18T09:29:45;21.50;;;11.27;;
15443;SDS011;7822;48.146;11.576;2022-12-18T09:32:14;18.97;;;11.50;;
15443;SDS011;7822;48.146;11.576;2022-12-18T09:34:47;19.37;;;11.90;;
15443;SDS011;7822;48.146;11.576;2022-12-18T09:37:19;19.90;;;11.10;;
15443;SDS011;7822;48.146;11.576;2022-12-18T09:39:47;19.90;;;12.07;;
15443;SDS011;7822;48.146;11.576;2022-12-18T09:42:17;17.70;;;11.37;;
15443;SDS011;7822;48.146;11.576;2022-12-18T09:44:49;21.13;;;12.83;;
15443;SDS011;7822;48.146;11.576;2022-12-18T09:47:19;23.23;;;12.97;;
15443;SDS011;7822;48.146;11.576;2022-12-18T09:49:52;21.87;;;12.97;;
15443;SDS011;7822;48.146;11.576;2022-12-18T09:52:26;20.83;;;10.77;;
15443;SDS011;7822;48.146;11.576;2022-12-18T09:54:56;21.40;;;11.77;;
15443;SDS011;7822;48.146;11.576;2022-12-18T09:57:28;21.07;;;11.60;;
15443;SDS011;7822;48.146;11.576;2022-12-18T10:00:02;19.13;;;11.03;;
15443;SDS011;7822;48.146;11.576;2022-12-18T10:02:34;18.27;;;11.03;;
15443;SDS011;7822;48.146;11.576;2022-12-18T10:05:04;20.50;;;11.73;;
15443;SDS011;7822;48.146;11.576;2022-12-18T10:07:41;21.67;;;11.63;;
15443;SDS011;7822;48.146;11.576;2022-12-18T10:10:18;21.63;;;13.17;;
15443;SDS011;7822;48.146;11.576;2022-12-18T10:12:55;20.47;;;11.87;;
15443;SDS011;7822;48.146;11.576;2022-12-18T10:15:31;21.87;;;11.77;;
15443;SDS011;7822;48.146;11.576;2022-12-18T10:18:10;18.80;;;10.83;;
15443;SDS011;7822;48.146;11.576;2022-12-18T10:20:51;18.97;;;11.40;;
15443;SDS011;7822;48.146;11.576;2022-12-18T10:23:23;19.70;;;11.00;;
15443;SDS011;7822;48.146;11.576;2022-12-18T10:25:59;20.70;;;11.60;;
15443;SDS011;7822;48.146;11.576;2022-12-18T10:28:29;21.73;;;11.30;;
15443;SDS011;7822;48.146;11.576;2022-12-18T10:30:58;19.47;;;11.40;;
15443;SDS011;7822;48.146;11.576;2022-12-18T10:33:29;17.50;;;10.23;;
15443;SDS011;7822;48.146;11.576;2022-12-18T10:35:58;19.17;;;12.07;;
15443;SDS011;7822;48.146;11.576;2022-12-18T10:38:26;20.77;;;11.47;;
15443;SDS011;7822;48.146;11.576;2022-12-18T10:40:57;21.67;;;11.73;;
15443;SDS011;7822;48.146;11.576;2022-12-18T10:43:26;19.37;;;10.70;;
15443;SDS011;7822;48.146;11.576;2022-12-18T10:46:00;20.57;;;11.23;;
15443;SDS011;7822;48.146;11.576;2022-12-18T10:48:53;19.80;;;11.13;;
15443;SDS011;7822;48.146;11.576;2022-12-18T10:51:25;20.33;;;10.93;;
15443;SDS011;7822;48.146;11.576;2022-12-18T10:53:57;21.50;;;11.07;;
15443;SDS011;7822;48.146;11.576;2022-12-18T10:56:28;18.73;;;10.07;;
15443;SDS011;7822;48.146;11.576;2022-12-18T10:58:59;20.73;;;11.77;;
15443;SDS011;7822;48.146;11.576;2022-12-18T11:01:31;19.03;;;11.37;;
15443;SDS011;7822;48.146;11.576;2022-12-18T11:04:17;19.50;;;11.37;;
15443;SDS011;7822;48.146;11.576;2022-12-18T11:06:57;21.30;;;12.27;;
15443;SDS011;7822;48.146;11.576;2022-12-18T11:09:26;19.90;;;11.10;;
15443;SDS011;7822;48.146;11.576;2022-12-18T11:11:56;17.97;;;10.90;;
15443;SDS011;7822;48.146;11.576;2022-12-18T11:14:26;22.00;;;12.57;;
15443;SDS011;7822;48.146;11.576;2022-12-18T11:16:56;18.63;;;11.03;;
15443;SDS011;7822;48.146;11.576;2022-12-18T11:19:52;17.90;;;11.63;;
15443;SDS011;7822;48.146;11.576;2022-12-18T11:22:23;20.33;;;11.40;;
15443;SDS011;7822;48.146;11.576;2022-12-18T11:24:55;19.73;;;11.43;;
15443;SDS011;7822;48.146;11.576;2022-12-18T11:27:49;19.53;;;11.27;;
15443;SDS011;7822;48.146;11.576;2022-12-18T11:30:23;17.07;;;10.30;;
15443;SDS011;7822;48.146;11.576;2022-12-18T11:32:54;19.80;;;11.10;;
15443;SDS011;7822;48.146;11.576;2022-12-18T11:38:21;20.33;;;11.03;;
15443;SDS011;7822;48.146;11.576;2022-12-18T11:40:54;20.17;;;11.07;;
15443;SDS011;7822;48.146;11.576;2022-12-18T11:43:27;20.57;;;11.60;;
15443;SDS011;7822;48.146;11.576;2022-12-18T11:45:59;19.57;;;11.20;;
15443;SDS011;7822;48.146;11.576;2022-12-18T11:48:30;21.30;;;11.63;;
15443;SDS011;7822;48.146;11.576;2022-12-18T11:51:02;18.33;;;10.90;;
15443;SDS011;7822;48.146;11.576;2022-12-18T11:53:36;16.77;;;10.93;;
15443;SDS011;7822;48.146;11.576;2022-12-18T11:56:07;19.80;;;11.07;;
15443;SDS011;7822;48.146;11.576;2022-12-18T11:58:54;17.73;;;11.53;;
15443;SDS011;7822;48.146;11.576;2022-12-18T12:01:29;19.83;;;11.17;;
15443;SDS011;7822;48.146;11.576;2022-12-18T12:04:20;19.17;;;10.80;;
15443;SDS011;7822;48.146;11.576;2022-12-18T12:07:07;17.77;;;11.20;;
15443;SDS011;7822;48.146;11.576;2022-12-18T12:09:48;18.93;;;10.73;;
15443;SDS011;7822;48.146;11.576;2022-12-18T12:12:30;20.43;;;10.53;;
15443;SDS011;7822;48.146;11.576;2022-12-18T12:15:17;19.67;;;11.17;;
15443;SDS011;7822;48.146;11.576;2022-12-18T12:17:56;18.87;;;10.97;;
15443;SDS011;7822;48.146;11.576;2022-12-18T12:20:40;16.03;;;9.90;;
15443;SDS011;7822;48.146;11.576;2022-12-18T12:23:22;19.23;;;11.57;;
15443;SDS011;7822;48.146;11.576;2022-12-18T12:26:04;19.00;;;12.20;;
15443;SDS011;7822;48.146;11.576;2022-12-18T12:28:48;19.23;;;10.77;;
15443;SDS011;7822;48.146;11.576;2022-12-18T12:31:39;20.87;;;11.93;;
15443;SDS011;7822;48.146;11.576;2022-12-18T12:34:16;19.27;;;10.93;;
15443;SDS011;7822;48.146;11.576;2022-12-18T12:36:52;19.37;;;10.83;;
15443;SDS011;7822;48.146;11.576;2022-12-18T12:39:32;18.87;;;10.90;;
15443;SDS011;7822;48.146;11.576;2022-12-18T12:42:03;19.93;;;11.53;;
15443;SDS011;7822;48.146;11.576;2022-12-18T12:44:51;17.37;;;10.60;;
15443;SDS011;7822;48.146;11.576;2022-12-18T12:47:23;18.20;;;11.80;;
15443;SDS011;7822;48.146;11.576;2022-12-18T12:49:55;19.43;;;10.90;;
15443;SDS011;7822;48.146;11.576;2022-12-18T12:52:27;16.90;;;11.23;;
15443;SDS011;7822;48.146;11.576;2022-12-18T12:54:59;19.40;;;12.30;;
15443;SDS011;7822;48.146;11.576;2022-12-18T12:57:31;23.10;;;12.07;;
15443;SDS011;7822;48.146;11.576;2022-12-18T13:00:04;21.73;;;11.80;;
15443;SDS011;7822;48.146;11.576;2022-12-18T13:02:36;19.23;;;11.57;;
15443;SDS011;7822;48.146;11.576;2022-12-18T13:05:13;19.53;;;11.13;;
15443;SDS011;7822;48.146;11.576;2022-12-18T13:07:47;17.80;;;10.27;;
15443;SDS011;7822;48.146;11.576;2022-12-18T13:10:32;19.20;;;11.17;;
15443;SDS011;7822;48.146;11.576;2022-12-18T13:13:02;17.87;;;10.47;;
15443;SDS011;7822;48.146;11.576;2022-12-18T13:15:36;19.37;;;10.97;;
15443;SDS011;7822;48.146;11.576;2022-12-18T13:18:16;19.93;;;11.40;;
15443;SDS011;7822;48.146;11.576;2022-12-18T13:20:47;20.50;;;10.80;;
15443;SDS011;7822;48.146;11.576;2022-12-18T13:23:29;19.30;;;11.27;;
15443;SDS011;7822;48.146;11.576;2022-12-18T13:29:01;16.73;;;11.27;;
15443;SDS011;7822;48.146;11.576;2022-12-18T13:34:35;24.13;;;11.83;;
15443;SDS011;7822;48.146;11.576;2022-12-18T13:43:31;20.57;;;11.43;;
15443;SDS011;7822;48.146;11.576;2022-12-18T13:46:04;18.23;;;10.70;;
15443;SDS011;7822;48.146;11.576;2022-12-18T13:48:48;19.27;;;10.97;;
15443;SDS011;7822;48.146;11.576;2022-12-18T13:51:19;20.03;;;11.53;;
15443;SDS011;7822;48.146;11.576;2022-12-18T13:53:49;17.80;;;11.13;;
15443;SDS011;7822;48.146;11.576;2022-12-18T13:56:21;17.10;;;11.17;;
15443;SDS011;7822;48.146;11.576;2022-12-18T13:59:08;18.30;;;11.17;;
15443;SDS011;7822;48.146;11.576;2022-12-18T14:01:43;18.83;;;11.50;;
15443;SDS011;7822;48.146;11.576;2022-12-18T14:04:18;17.97;;;10.60;;
15443;SDS011;7822;48.146;11.576;2022-12-18T14:06:49;15.90;;;10.27;;
15443;SDS011;7822;48.146;11.576;2022-12-18T14:09:21;20.43;;;11.90;;
15443;SDS011;7822;48.146;11.576;2022-12-18T14:11:54;19.13;;;11.27;;
15443;SDS011;7822;48.146;11.576;2022-12-18T14:14:45;22.37;;;12.33;;
15443;SDS011;7822;48.146;11.576;2022-12-18T14:17:18;20.37;;;11.33;;
15443;SDS011;7822;48.146;11.576;2022-12-18T14:19:47;20.53;;;12.00;;
15443;SDS011;7822;48.146;11.576;2022-12-18T14:22:18;18.53;;;10.93;;
15443;SDS011;7822;48.146;11.576;2022-12-18T14:24:47;18.13;;;11.17;;
15443;SDS011;7822;48.146;11.576;2022-12-18T14:27:31;21.27;;;11.77;;
15443;SDS011;7822;48.146;11.576;2022-12-18T14:30:00;17.20;;;11.27;;
15443;SDS011;7822;48.146;11.576;2022-12-18T14:32:28;17.53;;;10.90;;
15443;SDS011;7822;48.146;11.576;2022-12-18T14:34:55;19.50;;;10.90;;
15443;SDS011;7822;48.146;11.576;2022-12-18T14:37:24;19.43;;;11.07;;
15443;SDS011;7822;48.146;11.576;2022-12-18T14:39:53;19.70;;;11.57;;
15443;SDS011;7822;48.146;11.576;2022-12-18T14:42:23;20.60;;;12.07;;
15443;SDS011;7822;48.146;11.576;2022-12-18T14:48:08;19.70;;;11.57;;
15443;SDS011;7822;48.146;11.576;2022-12-18T14:50:54;19.30;;;11.97;;
15443;SDS011;7822;48.146;11.576;2022-12-18T14:53:28;21.67;;;12.60;;
15443;SDS011;7822;48.146;11.576;2022-12-18T14:56:01;22.73;;;11.70;;
15443;SDS011;7822;48.146;11.576;2022-12-18T14:58:30;19.20;;;10.60;;
15443;SDS011;7822;48.146;11.576;2022-12-18T15:00:59;17.90;;;11.00;;
15443;SDS011;7822;48.146;11.576;2022-12-18T15:03:27;20.07;;;11.63;;
15443;SDS011;7822;48.146;11.576;2022-12-18T15:05:54;18.57;;;11.17;;